Joy — WDJ7558 — position and weather

sailwx.info

Track history (hours):
 
Tides and Currents Weather Stations Pressure Air Temp Water Temp Dewpoint Dewpoint Depression Visibility Wind Speed Wind Dir Waves Ship Positions

Joy

Owner: Cros, Francois J, Miami, FL. More information available from US FCC via Universal Licensing System and Coast Guard Vessel Documentation Center.

Last reported at 2018-Feb-23 14:29 UTC. Time now 2018-Feb-23 14:56 UTC.
Position N 17°22' W 062°15'.

Type: Sailing vessel. MMSI: 368007920.

Date/timePositionNaut miles runAvg speedWind from/ knotsBaromVisibWave heightAir tempDewpointWater temp
2018-Feb-23 14:29N 17°22' W 062°15'4 8.1
2018-Feb-23 14:00N 17°19' W 062°12'4 7.9
2018-Feb-23 13:30N 17°17' W 062°09'4 8.0
2018-Feb-23 13:00N 17°14' W 062°06'4 7.8
2018-Feb-23 12:30N 17°12' W 062°03'4 7.7
2018-Feb-23 12:00N 17°09' W 062°00'4 7.2
2018-Feb-23 11:30N 17°06' W 061°57'3 6.1
2018-Feb-23 10:59N 17°04' W 061°55'1 1.0
2018-Feb-23 10:05N 17°04' W 061°54'0 0.0
2018-Feb-23 10:00N 17°04' W 061°54'0 0.0
2018-Feb-23 09:27N 17°04' W 061°54'0 0.0
2018-Feb-23 08:58N 17°04' W 061°54'0 0.0
2018-Feb-23 08:28N 17°04' W 061°54'0 0.0
2018-Feb-23 07:59N 17°04' W 061°54'0 0.0
2018-Feb-23 07:17N 17°04' W 061°54'0 0.0
2018-Feb-23 06:53N 17°04' W 061°54'0 0.0
2018-Feb-23 06:29N 17°04' W 061°54'0 0.0
2018-Feb-23 05:56N 17°04' W 061°54'0 0.0
2018-Feb-23 05:29N 17°04' W 061°54'0 0.0
2018-Feb-23 04:29N 17°04' W 061°54'0 0.0
2018-Feb-23 03:41N 17°04' W 061°54'0 0.0
2018-Feb-23 03:29N 17°04' W 061°54'0 0.0
2018-Feb-23 02:56N 17°04' W 061°54'0 0.0
2018-Feb-23 02:28N 17°04' W 061°54'0 0.0
2018-Feb-23 01:58N 17°04' W 061°54'0 0.0
2018-Feb-23 01:28N 17°04' W 061°54'0 0.0
2018-Feb-23 00:58N 17°04' W 061°54'0 0.0
2018-Feb-23 00:29N 17°04' W 061°54'0 0.0
2018-Feb-22 23:59N 17°04' W 061°54'0 0.0
2018-Feb-22 21:42N 17°04' W 061°54'0 0.0
2018-Feb-22 20:33N 17°04' W 061°54'0 0.0
2018-Feb-22 20:18N 17°04' W 061°54'0 0.0
2018-Feb-22 19:58N 17°04' W 061°54'0 0.0
2018-Feb-22 19:30N 17°04' W 061°54'0 0.0
2018-Feb-22 19:00N 17°04' W 061°54'0 0.0
2018-Feb-22 18:30N 17°04' W 061°54'0 0.0
2018-Feb-22 18:00N 17°04' W 061°54'0 0.0
2018-Feb-22 17:30N 17°04' W 061°54'3 3.6
2018-Feb-22 16:31N 17°01' W 061°54'0 4.3
2018-Feb-22 16:29N 17°01' W 061°54'3 5.6
2018-Feb-22 16:00N 16°60' W 061°51'3 6.8
2018-Feb-22 15:30N 17°00' W 061°48'1 2.8
2018-Feb-22 14:59N 17°01' W 061°46'0 0.0
2018-Feb-22 14:29N 17°01' W 061°46'0 0.0
2018-Feb-22 13:59N 17°01' W 061°46'0 0.0
2018-Feb-22 13:29N 17°01' W 061°46'0 0.0
2018-Feb-22 12:59N 17°01' W 061°46'0 0.0
2018-Feb-22 12:29N 17°01' W 061°46'0 0.0
2018-Feb-22 11:59N 17°01' W 061°46'0 0.0
2018-Feb-22 11:29N 17°01' W 061°46'0 0.0
2018-Feb-22 10:59N 17°01' W 061°46'0 0.0
2018-Feb-22 10:29N 17°01' W 061°46'0 0.0
2018-Feb-22 09:59N 17°01' W 061°46'0 0.0
2018-Feb-22 09:29N 17°01' W 061°46'0 0.0
2018-Feb-22 08:59N 17°01' W 061°46'0 0.0
2018-Feb-22 08:29N 17°01' W 061°46'0 0.0
2018-Feb-22 07:59N 17°01' W 061°46'0 0.0
2018-Feb-22 07:23N 17°01' W 061°46'0 0.0
2018-Feb-22 06:59N 17°01' W 061°46'0 0.0
2018-Feb-22 06:29N 17°01' W 061°46'0 0.0
2018-Feb-22 05:59N 17°01' W 061°46'0 0.0
2018-Feb-22 05:28N 17°01' W 061°46'0 0.0
2018-Feb-22 04:58N 17°01' W 061°46'0 0.0
2018-Feb-22 04:28N 17°01' W 061°46'0 0.0
2018-Feb-22 04:00N 17°01' W 061°46'0 0.0
2018-Feb-22 03:30N 17°01' W 061°46'0 0.0
2018-Feb-22 03:00N 17°01' W 061°46'0 0.0
2018-Feb-22 02:30N 17°01' W 061°46'0 0.0
2018-Feb-22 02:00N 17°01' W 061°46'0 0.0
2018-Feb-22 01:30N 17°01' W 061°46'0 0.0
2018-Feb-22 01:00N 17°01' W 061°46'0 0.0
2018-Feb-22 00:30N 17°01' W 061°46'0 0.0
2018-Feb-22 00:00N 17°01' W 061°46'0 0.0
2018-Feb-21 23:30N 17°01' W 061°46'0 0.0
2018-Feb-21 23:00N 17°01' W 061°46'0 0.0
2018-Feb-21 22:30N 17°01' W 061°46'0 0.0
2018-Feb-21 22:00N 17°01' W 061°46'0 0.0
2018-Feb-21 21:30N 17°01' W 061°46'0 0.0
2018-Feb-21 21:00N 17°01' W 061°46'0 0.0
2018-Feb-21 20:30N 17°01' W 061°46'0 0.0
2018-Feb-21 20:00N 17°01' W 061°46'0 0.0
2018-Feb-21 19:30N 17°01' W 061°46'0 0.0
2018-Feb-21 19:00N 17°01' W 061°46'0 0.0
2018-Feb-21 18:30N 17°01' W 061°46'0 0.0
2018-Feb-21 18:00N 17°01' W 061°46'0 0.0
2018-Feb-21 17:30N 17°01' W 061°46'0 0.0
2018-Feb-21 17:00N 17°01' W 061°46'0 0.0
2018-Feb-21 16:30N 17°01' W 061°46'0 0.0
2018-Feb-21 16:00N 17°01' W 061°46'0 0.0
2018-Feb-21 15:30N 17°01' W 061°46'0 0.0
2018-Feb-21 15:00N 17°01' W 061°46'0 0.0
2018-Feb-21 14:30N 17°01' W 061°46'0 0.0
2018-Feb-21 14:00N 17°01' W 061°46'0 0.0
2018-Feb-21 13:30N 17°01' W 061°46'0 0.0
2018-Feb-21 13:01N 17°01' W 061°46'0 0.0
2018-Feb-21 12:29N 17°01' W 061°46'0 0.0
2018-Feb-21 11:58N 17°01' W 061°46'0 0.0
2018-Feb-21 11:28N 17°01' W 061°46'0 0.0
2018-Feb-21 10:58N 17°01' W 061°46'0 0.0
2018-Feb-21 10:28N 17°01' W 061°46'0 0.0
2018-Feb-21 09:58N 17°01' W 061°46'0 0.0
2018-Feb-21 09:28N 17°01' W 061°46'0 0.0
2018-Feb-21 08:58N 17°01' W 061°46'0 0.0
2018-Feb-21 08:28N 17°01' W 061°46'0 0.0
2018-Feb-21 07:58N 17°01' W 061°46'0 0.0
2018-Feb-21 07:28N 17°01' W 061°46'0 0.0
2018-Feb-21 06:58N 17°01' W 061°46'0 0.0
2018-Feb-21 06:28N 17°01' W 061°46'0 0.0
2018-Feb-21 05:58N 17°01' W 061°46'0 0.0
2018-Feb-21 05:28N 17°01' W 061°46'0 0.0
2018-Feb-21 04:58N 17°01' W 061°46'0 0.0
2018-Feb-21 04:28N 17°01' W 061°46'0 0.0
2018-Feb-21 03:58N 17°01' W 061°46'0 0.0
2018-Feb-21 03:28N 17°01' W 061°46'0 0.0
2018-Feb-21 02:58N 17°01' W 061°46'0 0.0
2018-Feb-21 02:28N 17°01' W 061°46'0 0.0
2018-Feb-21 01:58N 17°01' W 061°46'0 0.0
2018-Feb-21 01:28N 17°01' W 061°46'0 0.0
2018-Feb-21 00:58N 17°01' W 061°46'0 0.0
2018-Feb-21 00:28N 17°01' W 061°46'0 0.0
2018-Feb-20 23:58N 17°01' W 061°46'0 0.0
2018-Feb-20 23:28N 17°01' W 061°46'0 0.0
2018-Feb-20 22:58N 17°01' W 061°46'0 0.0
2018-Feb-20 22:28N 17°01' W 061°46'0 0.0
2018-Feb-20 21:58N 17°01' W 061°46'0 0.0
2018-Feb-20 21:28N 17°01' W 061°46'0 0.0
2018-Feb-20 20:58N 17°01' W 061°46'0 0.0
2018-Feb-20 20:28N 17°01' W 061°46'0 0.0
2018-Feb-20 19:58N 17°01' W 061°46'0 0.0
2018-Feb-20 19:28N 17°01' W 061°46'0 0.0
2018-Feb-20 18:58N 17°01' W 061°46'0 0.0
2018-Feb-20 18:28N 17°01' W 061°46'0 0.0
2018-Feb-20 17:58N 17°01' W 061°46'0 0.0
2018-Feb-20 17:28N 17°01' W 061°46'0 0.0
2018-Feb-20 16:58N 17°01' W 061°46'0 0.0
2018-Feb-20 16:28N 17°01' W 061°46'0 0.0
2018-Feb-20 15:58N 17°01' W 061°46'0 0.0
2018-Feb-20 15:28N 17°01' W 061°46'0 0.0
2018-Feb-20 14:58N 17°01' W 061°46'0 0.0
2018-Feb-20 14:28N 17°01' W 061°46'0 0.0
2018-Feb-20 13:58N 17°01' W 061°46'0 0.0
2018-Feb-20 13:28N 17°01' W 061°46'0 0.0
2018-Feb-20 12:58N 17°01' W 061°46'0 0.0
2018-Feb-20 12:28N 17°01' W 061°46'0 0.0
2018-Feb-20 12:00N 17°01' W 061°46'0 0.0
2018-Feb-20 11:30N 17°01' W 061°46'0 0.0
2018-Feb-20 10:58N 17°01' W 061°46'0 0.0
2018-Feb-20 10:28N 17°01' W 061°46'0 0.0
2018-Feb-20 09:58N 17°01' W 061°46'0 0.0
2018-Feb-20 09:28N 17°01' W 061°46'0 0.0
2018-Feb-20 08:58N 17°01' W 061°46'0 0.0
2018-Feb-20 08:28N 17°01' W 061°46'0 0.0
2018-Feb-20 07:58N 17°01' W 061°46'0 0.0
2018-Feb-20 07:28N 17°01' W 061°46'0 0.0
2018-Feb-20 06:58N 17°01' W 061°46'0 0.0
2018-Feb-20 06:30N 17°01' W 061°46'0 0.0
2018-Feb-20 06:00N 17°01' W 061°46'0 0.0
2018-Feb-20 05:30N 17°01' W 061°46'0 0.0
2018-Feb-20 05:00N 17°01' W 061°46'0 0.0
2018-Feb-20 04:30N 17°01' W 061°46'0 0.0
2018-Feb-20 04:00N 17°01' W 061°46'0 0.0
2018-Feb-20 03:30N 17°01' W 061°46'0 0.0
2018-Feb-20 03:00N 17°01' W 061°46'0 0.0
2018-Feb-20 02:30N 17°01' W 061°46'0 0.0
2018-Feb-20 02:00N 17°01' W 061°46'0 0.0
2018-Feb-20 01:30N 17°01' W 061°46'0 0.0
2018-Feb-20 01:00N 17°01' W 061°46'0 0.0
2018-Feb-20 00:30N 17°01' W 061°46'0 0.0
2018-Feb-20 00:00N 17°01' W 061°46'0 0.0
2018-Feb-19 23:27N 17°01' W 061°46'0 0.0
2018-Feb-19 23:00N 17°01' W 061°46'0 0.0
2018-Feb-19 22:30N 17°01' W 061°46'0 0.0
2018-Feb-19 22:00N 17°01' W 061°46'0 0.0
2018-Feb-19 21:24N 17°01' W 061°46'0 0.0
2018-Feb-19 21:00N 17°01' W 061°46'0 0.0
2018-Feb-19 20:30N 17°01' W 061°46'0 0.0
2018-Feb-19 20:00N 17°01' W 061°46'0 0.0
2018-Feb-19 19:30N 17°01' W 061°46'0 0.0
2018-Feb-19 19:00N 17°01' W 061°46'0 0.0
2018-Feb-19 18:30N 17°01' W 061°46'0 0.0
2018-Feb-19 18:00N 17°01' W 061°46'0 0.0
2018-Feb-19 17:30N 17°01' W 061°46'0 0.0
2018-Feb-19 17:00N 17°01' W 061°46'0 0.0
2018-Feb-19 16:30N 17°01' W 061°46'0 0.0
2018-Feb-19 16:00N 17°01' W 061°46'0 0.0
2018-Feb-19 15:30N 17°01' W 061°46'0 0.0
2018-Feb-19 15:00N 17°01' W 061°46'0 0.0
2018-Feb-19 14:30N 17°01' W 061°46'0 0.0
2018-Feb-19 14:00N 17°01' W 061°46'0 0.0
2018-Feb-19 13:30N 17°01' W 061°46'0 0.0
2018-Feb-19 12:59N 17°01' W 061°46'0 0.0
2018-Feb-19 12:29N 17°01' W 061°46'0 0.0
2018-Feb-19 12:00N 17°01' W 061°46'0 0.0
2018-Feb-19 11:30N 17°01' W 061°46'0 0.0
2018-Feb-19 11:00N 17°01' W 061°46'0 0.0
2018-Feb-19 10:30N 17°01' W 061°46'0 0.0
2018-Feb-19 10:00N 17°01' W 061°46'0 0.0
2018-Feb-19 09:30N 17°01' W 061°46'0 0.0
2018-Feb-19 09:00N 17°01' W 061°46'0 0.0
2018-Feb-19 08:24N 17°01' W 061°46'0 0.0
2018-Feb-19 08:00N 17°01' W 061°46'0 0.0
2018-Feb-19 07:30N 17°01' W 061°46'0 0.0
2018-Feb-19 06:58N 17°01' W 061°46'0 0.0
2018-Feb-19 06:28N 17°01' W 061°46'0 0.0
2018-Feb-19 05:58N 17°01' W 061°46'0 0.0
2018-Feb-19 05:28N 17°01' W 061°46'0 0.0
2018-Feb-19 04:58N 17°01' W 061°46'0 0.0
2018-Feb-19 04:28N 17°01' W 061°46'0 0.0
2018-Feb-19 03:58N 17°01' W 061°46'0 0.0
2018-Feb-19 03:28N 17°01' W 061°46'0 0.0
2018-Feb-19 02:58N 17°01' W 061°46'0 0.0
2018-Feb-19 02:28N 17°01' W 061°46'0 0.0
2018-Feb-19 01:58N 17°01' W 061°46'0 0.0
2018-Feb-19 01:28N 17°01' W 061°46'0 0.0
2018-Feb-19 00:58N 17°01' W 061°46'0 0.0
2018-Feb-19 00:28N 17°01' W 061°46'0 0.0
2018-Feb-18 23:58N 17°01' W 061°46'0 0.0
2018-Feb-18 23:28N 17°01' W 061°46'0 0.0
2018-Feb-18 22:58N 17°01' W 061°46'0 0.0
2018-Feb-18 22:28N 17°01' W 061°46'0 0.0
2018-Feb-18 21:58N 17°01' W 061°46'0 0.0
2018-Feb-18 21:28N 17°01' W 061°46'0 0.0
2018-Feb-18 20:58N 17°01' W 061°46'0 0.0
2018-Feb-18 20:28N 17°01' W 061°46'0 0.0
2018-Feb-18 20:00N 17°01' W 061°46'0 0.0
2018-Feb-18 19:30N 17°01' W 061°46'0 0.0
2018-Feb-18 19:00N 17°01' W 061°46'0 0.2
2018-Feb-18 18:28N 17°01' W 061°46'0 0.0
2018-Feb-18 17:58N 17°01' W 061°46'0 0.0
2018-Feb-18 17:28N 17°01' W 061°46'0 0.6
2018-Feb-18 17:00N 17°01' W 061°47'3 5.6
2018-Feb-18 16:30N 16°60' W 061°49'3 6.6
2018-Feb-18 16:00N 16°57' W 061°50'3 6.9
2018-Feb-18 15:30N 16°53' W 061°51'3 6.1
2018-Feb-18 15:00N 16°50' W 061°52'3 6.7
2018-Feb-18 14:30N 16°47' W 061°51'4 8.0
2018-Feb-18 14:00N 16°43' W 061°51'4 7.9
2018-Feb-18 13:29N 16°39' W 061°51'4 7.1
2018-Feb-18 12:59N 16°35' W 061°50'4 7.4
2018-Feb-18 12:28N 16°32' W 061°49'  
2018-Feb-14 18:06N 14°27' W 060°59'1 5.1
2018-Feb-14 18:00N 14°27' W 060°59'3 5.4
2018-Feb-14 17:29N 14°27' W 060°56'3 5.9
2018-Feb-14 17:00N 14°27' W 060°53'1 2.5
2018-Feb-14 16:28N 14°28' W 060°52'0 0.2
2018-Feb-14 15:59N 14°28' W 060°52'0 0.0
2018-Feb-14 15:29N 14°28' W 060°52'0 0.0
2018-Feb-14 14:59N 14°28' W 060°52'0 0.0
2018-Feb-14 14:29N 14°28' W 060°52'0 0.0
2018-Feb-14 13:59N 14°28' W 060°52'0 0.0
2018-Feb-14 13:26N 14°28' W 060°52'0 0.0
2018-Feb-14 12:53N 14°28' W 060°52'0 0.0
2018-Feb-14 12:14N 14°28' W 060°52'0 0.0
2018-Feb-14 11:56N 14°28' W 060°52'0 0.0
2018-Feb-14 11:29N 14°28' W 060°52'0 0.0
2018-Feb-14 10:59N 14°28' W 060°52'0 0.0
2018-Feb-14 10:29N 14°28' W 060°52'0 0.0
2018-Feb-14 09:59N 14°28' W 060°52'0 0.0
2018-Feb-14 09:29N 14°28' W 060°52'0 0.0
2018-Feb-14 08:59N 14°28' W 060°52'0 0.0
2018-Feb-14 08:29N 14°28' W 060°52'0 0.0
2018-Feb-14 07:59N 14°28' W 060°52'0 0.0
2018-Feb-14 07:29N 14°28' W 060°52'0 0.0
2018-Feb-14 06:14N 14°28' W 060°52'0 0.0
2018-Feb-14 05:59N 14°28' W 060°52'0 0.0
2018-Feb-14 05:29N 14°28' W 060°52'0 0.0
2018-Feb-14 04:59N 14°28' W 060°52'0 0.0
2018-Feb-14 04:29N 14°28' W 060°52'0 0.0
2018-Feb-14 03:59N 14°28' W 060°52'0 0.0
2018-Feb-14 03:29N 14°28' W 060°52'0 0.0
2018-Feb-14 02:59N 14°28' W 060°52'0 0.0
2018-Feb-14 02:29N 14°28' W 060°52'0 0.0
2018-Feb-14 01:56N 14°28' W 060°52'0 0.0
2018-Feb-14 01:29N 14°28' W 060°52'0 0.0
2018-Feb-14 00:59N 14°28' W 060°52'0 0.0
2018-Feb-14 00:23N 14°28' W 060°52'0 0.0
2018-Feb-13 23:59N 14°28' W 060°52'0 0.0
2018-Feb-13 23:26N 14°28' W 060°52'0 0.0
2018-Feb-13 22:59N 14°28' W 060°52'0 0.0
2018-Feb-13 22:29N 14°28' W 060°52'0 0.0
2018-Feb-13 21:59N 14°28' W 060°52'0 0.0
2018-Feb-13 21:29N 14°28' W 060°52'0 0.0
2018-Feb-13 20:59N 14°28' W 060°52'0 0.0
2018-Feb-13 20:29N 14°28' W 060°52'0 0.0
2018-Feb-13 19:59N 14°28' W 060°52'0 0.0
2018-Feb-13 19:26N 14°28' W 060°52'0 0.0
2018-Feb-13 18:59N 14°28' W 060°52'0 0.0
2018-Feb-13 18:26N 14°28' W 060°52'0 0.0
2018-Feb-13 17:59N 14°28' W 060°52'0 0.0
2018-Feb-13 17:29N 14°28' W 060°52'0 0.0
2018-Feb-13 16:59N 14°28' W 060°52'0 0.0
2018-Feb-13 16:29N 14°28' W 060°52'0 0.0
2018-Feb-13 15:59N 14°28' W 060°52'0 0.0
2018-Feb-13 15:29N 14°28' W 060°52'0 0.0
2018-Feb-13 14:59N 14°28' W 060°52'  
Track history (hours):
 
Tides and Currents Weather Stations Pressure Air Temp Water Temp Dewpoint Dewpoint Depression Visibility Wind Speed Wind Dir Waves Ship Positions

Joy

Owner: Cros, Francois J, Miami, FL. More information available from US FCC via Universal Licensing System and Coast Guard Vessel Documentation Center.

Last reported at 2018-Feb-23 14:29 UTC. Time now 2018-Feb-23 14:56 UTC.
Position N 17°22' W 062°15'.

Type: Sailing vessel. MMSI: 368007920.

Date/timePositionNaut miles runAvg speedWind from/ knotsBaromVisibWave heightAir tempDewpointWater temp
2018-Feb-23 14:29N 17°22' W 062°15'4 8.1
2018-Feb-23 14:00N 17°19' W 062°12'4 7.9
2018-Feb-23 13:30N 17°17' W 062°09'4 8.0
2018-Feb-23 13:00N 17°14' W 062°06'4 7.8
2018-Feb-23 12:30N 17°12' W 062°03'4 7.7
2018-Feb-23 12:00N 17°09' W 062°00'4 7.2
2018-Feb-23 11:30N 17°06' W 061°57'3 6.1
2018-Feb-23 10:59N 17°04' W 061°55'1 1.0
2018-Feb-23 10:05N 17°04' W 061°54'0 0.0
2018-Feb-23 10:00N 17°04' W 061°54'0 0.0
2018-Feb-23 09:27N 17°04' W 061°54'0 0.0
2018-Feb-23 08:58N 17°04' W 061°54'0 0.0
2018-Feb-23 08:28N 17°04' W 061°54'0 0.0
2018-Feb-23 07:59N 17°04' W 061°54'0 0.0
2018-Feb-23 07:17N 17°04' W 061°54'0 0.0
2018-Feb-23 06:53N 17°04' W 061°54'0 0.0
2018-Feb-23 06:29N 17°04' W 061°54'0 0.0
2018-Feb-23 05:56N 17°04' W 061°54'0 0.0
2018-Feb-23 05:29N 17°04' W 061°54'0 0.0
2018-Feb-23 04:29N 17°04' W 061°54'0 0.0
2018-Feb-23 03:41N 17°04' W 061°54'0 0.0
2018-Feb-23 03:29N 17°04' W 061°54'0 0.0
2018-Feb-23 02:56N 17°04' W 061°54'0 0.0
2018-Feb-23 02:28N 17°04' W 061°54'0 0.0
2018-Feb-23 01:58N 17°04' W 061°54'0 0.0
2018-Feb-23 01:28N 17°04' W 061°54'0 0.0
2018-Feb-23 00:58N 17°04' W 061°54'0 0.0
2018-Feb-23 00:29N 17°04' W 061°54'0 0.0
2018-Feb-22 23:59N 17°04' W 061°54'0 0.0
2018-Feb-22 21:42N 17°04' W 061°54'0 0.0
2018-Feb-22 20:33N 17°04' W 061°54'0 0.0
2018-Feb-22 20:18N 17°04' W 061°54'0 0.0
2018-Feb-22 19:58N 17°04' W 061°54'0 0.0
2018-Feb-22 19:30N 17°04' W 061°54'0 0.0
2018-Feb-22 19:00N 17°04' W 061°54'0 0.0
2018-Feb-22 18:30N 17°04' W 061°54'0 0.0
2018-Feb-22 18:00N 17°04' W 061°54'0 0.0
2018-Feb-22 17:30N 17°04' W 061°54'3 3.6
2018-Feb-22 16:31N 17°01' W 061°54'0 4.3
2018-Feb-22 16:29N 17°01' W 061°54'3 5.6
2018-Feb-22 16:00N 16°60' W 061°51'3 6.8
2018-Feb-22 15:30N 17°00' W 061°48'1 2.8
2018-Feb-22 14:59N 17°01' W 061°46'0 0.0
2018-Feb-22 14:29N 17°01' W 061°46'0 0.0
2018-Feb-22 13:59N 17°01' W 061°46'0 0.0
2018-Feb-22 13:29N 17°01' W 061°46'0 0.0
2018-Feb-22 12:59N 17°01' W 061°46'0 0.0
2018-Feb-22 12:29N 17°01' W 061°46'0 0.0
2018-Feb-22 11:59N 17°01' W 061°46'0 0.0
2018-Feb-22 11:29N 17°01' W 061°46'0 0.0
2018-Feb-22 10:59N 17°01' W 061°46'0 0.0
2018-Feb-22 10:29N 17°01' W 061°46'0 0.0
2018-Feb-22 09:59N 17°01' W 061°46'0 0.0
2018-Feb-22 09:29N 17°01' W 061°46'0 0.0
2018-Feb-22 08:59N 17°01' W 061°46'0 0.0
2018-Feb-22 08:29N 17°01' W 061°46'0 0.0
2018-Feb-22 07:59N 17°01' W 061°46'0 0.0
2018-Feb-22 07:23N 17°01' W 061°46'0 0.0
2018-Feb-22 06:59N 17°01' W 061°46'0 0.0
2018-Feb-22 06:29N 17°01' W 061°46'0 0.0
2018-Feb-22 05:59N 17°01' W 061°46'0 0.0
2018-Feb-22 05:28N 17°01' W 061°46'0 0.0
2018-Feb-22 04:58N 17°01' W 061°46'0 0.0
2018-Feb-22 04:28N 17°01' W 061°46'0 0.0
2018-Feb-22 04:00N 17°01' W 061°46'0 0.0
2018-Feb-22 03:30N 17°01' W 061°46'0 0.0
2018-Feb-22 03:00N 17°01' W 061°46'0 0.0
2018-Feb-22 02:30N 17°01' W 061°46'0 0.0
2018-Feb-22 02:00N 17°01' W 061°46'0 0.0
2018-Feb-22 01:30N 17°01' W 061°46'0 0.0
2018-Feb-22 01:00N 17°01' W 061°46'0 0.0
2018-Feb-22 00:30N 17°01' W 061°46'0 0.0
2018-Feb-22 00:00N 17°01' W 061°46'0 0.0
2018-Feb-21 23:30N 17°01' W 061°46'0 0.0
2018-Feb-21 23:00N 17°01' W 061°46'0 0.0
2018-Feb-21 22:30N 17°01' W 061°46'0 0.0
2018-Feb-21 22:00N 17°01' W 061°46'0 0.0
2018-Feb-21 21:30N 17°01' W 061°46'0 0.0
2018-Feb-21 21:00N 17°01' W 061°46'0 0.0
2018-Feb-21 20:30N 17°01' W 061°46'0 0.0
2018-Feb-21 20:00N 17°01' W 061°46'0 0.0
2018-Feb-21 19:30N 17°01' W 061°46'0 0.0
2018-Feb-21 19:00N 17°01' W 061°46'0 0.0
2018-Feb-21 18:30N 17°01' W 061°46'0 0.0
2018-Feb-21 18:00N 17°01' W 061°46'0 0.0
2018-Feb-21 17:30N 17°01' W 061°46'0 0.0
2018-Feb-21 17:00N 17°01' W 061°46'0 0.0
2018-Feb-21 16:30N 17°01' W 061°46'0 0.0
2018-Feb-21 16:00N 17°01' W 061°46'0 0.0
2018-Feb-21 15:30N 17°01' W 061°46'0 0.0
2018-Feb-21 15:00N 17°01' W 061°46'0 0.0
2018-Feb-21 14:30N 17°01' W 061°46'0 0.0
2018-Feb-21 14:00N 17°01' W 061°46'0 0.0
2018-Feb-21 13:30N 17°01' W 061°46'0 0.0
2018-Feb-21 13:01N 17°01' W 061°46'0 0.0
2018-Feb-21 12:29N 17°01' W 061°46'0 0.0
2018-Feb-21 11:58N 17°01' W 061°46'0 0.0
2018-Feb-21 11:28N 17°01' W 061°46'0 0.0
2018-Feb-21 10:58N 17°01' W 061°46'0 0.0
2018-Feb-21 10:28N 17°01' W 061°46'0 0.0
2018-Feb-21 09:58N 17°01' W 061°46'0 0.0
2018-Feb-21 09:28N 17°01' W 061°46'0 0.0
2018-Feb-21 08:58N 17°01' W 061°46'0 0.0
2018-Feb-21 08:28N 17°01' W 061°46'0 0.0
2018-Feb-21 07:58N 17°01' W 061°46'0 0.0
2018-Feb-21 07:28N 17°01' W 061°46'0 0.0
2018-Feb-21 06:58N 17°01' W 061°46'0 0.0
2018-Feb-21 06:28N 17°01' W 061°46'0 0.0
2018-Feb-21 05:58N 17°01' W 061°46'0 0.0
2018-Feb-21 05:28N 17°01' W 061°46'0 0.0
2018-Feb-21 04:58N 17°01' W 061°46'0 0.0
2018-Feb-21 04:28N 17°01' W 061°46'0 0.0
2018-Feb-21 03:58N 17°01' W 061°46'0 0.0
2018-Feb-21 03:28N 17°01' W 061°46'0 0.0
2018-Feb-21 02:58N 17°01' W 061°46'0 0.0
2018-Feb-21 02:28N 17°01' W 061°46'0 0.0
2018-Feb-21 01:58N 17°01' W 061°46'0 0.0
2018-Feb-21 01:28N 17°01' W 061°46'0 0.0
2018-Feb-21 00:58N 17°01' W 061°46'0 0.0
2018-Feb-21 00:28N 17°01' W 061°46'0 0.0
2018-Feb-20 23:58N 17°01' W 061°46'0 0.0
2018-Feb-20 23:28N 17°01' W 061°46'0 0.0
2018-Feb-20 22:58N 17°01' W 061°46'0 0.0
2018-Feb-20 22:28N 17°01' W 061°46'0 0.0
2018-Feb-20 21:58N 17°01' W 061°46'0 0.0
2018-Feb-20 21:28N 17°01' W 061°46'0 0.0
2018-Feb-20 20:58N 17°01' W 061°46'0 0.0
2018-Feb-20 20:28N 17°01' W 061°46'0 0.0
2018-Feb-20 19:58N 17°01' W 061°46'0 0.0
2018-Feb-20 19:28N 17°01' W 061°46'0 0.0
2018-Feb-20 18:58N 17°01' W 061°46'0 0.0
2018-Feb-20 18:28N 17°01' W 061°46'0 0.0
2018-Feb-20 17:58N 17°01' W 061°46'0 0.0
2018-Feb-20 17:28N 17°01' W 061°46'0 0.0
2018-Feb-20 16:58N 17°01' W 061°46'0 0.0
2018-Feb-20 16:28N 17°01' W 061°46'0 0.0
2018-Feb-20 15:58N 17°01' W 061°46'0 0.0
2018-Feb-20 15:28N 17°01' W 061°46'0 0.0
2018-Feb-20 14:58N 17°01' W 061°46'0 0.0
2018-Feb-20 14:28N 17°01' W 061°46'0 0.0
2018-Feb-20 13:58N 17°01' W 061°46'0 0.0
2018-Feb-20 13:28N 17°01' W 061°46'0 0.0
2018-Feb-20 12:58N 17°01' W 061°46'0 0.0
2018-Feb-20 12:28N 17°01' W 061°46'0 0.0
2018-Feb-20 12:00N 17°01' W 061°46'0 0.0
2018-Feb-20 11:30N 17°01' W 061°46'0 0.0
2018-Feb-20 10:58N 17°01' W 061°46'0 0.0
2018-Feb-20 10:28N 17°01' W 061°46'0 0.0
2018-Feb-20 09:58N 17°01' W 061°46'0 0.0
2018-Feb-20 09:28N 17°01' W 061°46'0 0.0
2018-Feb-20 08:58N 17°01' W 061°46'0 0.0
2018-Feb-20 08:28N 17°01' W 061°46'0 0.0
2018-Feb-20 07:58N 17°01' W 061°46'0 0.0
2018-Feb-20 07:28N 17°01' W 061°46'0 0.0
2018-Feb-20 06:58N 17°01' W 061°46'0 0.0
2018-Feb-20 06:30N 17°01' W 061°46'0 0.0
2018-Feb-20 06:00N 17°01' W 061°46'0 0.0
2018-Feb-20 05:30N 17°01' W 061°46'0 0.0
2018-Feb-20 05:00N 17°01' W 061°46'0 0.0
2018-Feb-20 04:30N 17°01' W 061°46'0 0.0
2018-Feb-20 04:00N 17°01' W 061°46'0 0.0
2018-Feb-20 03:30N 17°01' W 061°46'0 0.0
2018-Feb-20 03:00N 17°01' W 061°46'0 0.0
2018-Feb-20 02:30N 17°01' W 061°46'0 0.0
2018-Feb-20 02:00N 17°01' W 061°46'0 0.0
2018-Feb-20 01:30N 17°01' W 061°46'0 0.0
2018-Feb-20 01:00N 17°01' W 061°46'0 0.0
2018-Feb-20 00:30N 17°01' W 061°46'0 0.0
2018-Feb-20 00:00N 17°01' W 061°46'0 0.0
2018-Feb-19 23:27N 17°01' W 061°46'0 0.0
2018-Feb-19 23:00N 17°01' W 061°46'0 0.0
2018-Feb-19 22:30N 17°01' W 061°46'0 0.0
2018-Feb-19 22:00N 17°01' W 061°46'0 0.0
2018-Feb-19 21:24N 17°01' W 061°46'0 0.0
2018-Feb-19 21:00N 17°01' W 061°46'0 0.0
2018-Feb-19 20:30N 17°01' W 061°46'0 0.0
2018-Feb-19 20:00N 17°01' W 061°46'0 0.0
2018-Feb-19 19:30N 17°01' W 061°46'0 0.0
2018-Feb-19 19:00N 17°01' W 061°46'0 0.0
2018-Feb-19 18:30N 17°01' W 061°46'0 0.0
2018-Feb-19 18:00N 17°01' W 061°46'0 0.0
2018-Feb-19 17:30N 17°01' W 061°46'0 0.0
2018-Feb-19 17:00N 17°01' W 061°46'0 0.0
2018-Feb-19 16:30N 17°01' W 061°46'0 0.0
2018-Feb-19 16:00N 17°01' W 061°46'0 0.0
2018-Feb-19 15:30N 17°01' W 061°46'0 0.0
2018-Feb-19 15:00N 17°01' W 061°46'0 0.0
2018-Feb-19 14:30N 17°01' W 061°46'0 0.0
2018-Feb-19 14:00N 17°01' W 061°46'0 0.0
2018-Feb-19 13:30N 17°01' W 061°46'0 0.0
2018-Feb-19 12:59N 17°01' W 061°46'0 0.0
2018-Feb-19 12:29N 17°01' W 061°46'0 0.0
2018-Feb-19 12:00N 17°01' W 061°46'0 0.0
2018-Feb-19 11:30N 17°01' W 061°46'0 0.0
2018-Feb-19 11:00N 17°01' W 061°46'0 0.0
2018-Feb-19 10:30N 17°01' W 061°46'0 0.0
2018-Feb-19 10:00N 17°01' W 061°46'0 0.0
2018-Feb-19 09:30N 17°01' W 061°46'0 0.0
2018-Feb-19 09:00N 17°01' W 061°46'0 0.0
2018-Feb-19 08:24N 17°01' W 061°46'0 0.0
2018-Feb-19 08:00N 17°01' W 061°46'0 0.0
2018-Feb-19 07:30N 17°01' W 061°46'0 0.0
2018-Feb-19 06:58N 17°01' W 061°46'0 0.0
2018-Feb-19 06:28N 17°01' W 061°46'0 0.0
2018-Feb-19 05:58N 17°01' W 061°46'0 0.0
2018-Feb-19 05:28N 17°01' W 061°46'0 0.0
2018-Feb-19 04:58N 17°01' W 061°46'0 0.0
2018-Feb-19 04:28N 17°01' W 061°46'0 0.0
2018-Feb-19 03:58N 17°01' W 061°46'0 0.0
2018-Feb-19 03:28N 17°01' W 061°46'0 0.0
2018-Feb-19 02:58N 17°01' W 061°46'0 0.0
2018-Feb-19 02:28N 17°01' W 061°46'0 0.0
2018-Feb-19 01:58N 17°01' W 061°46'0 0.0
2018-Feb-19 01:28N 17°01' W 061°46'0 0.0
2018-Feb-19 00:58N 17°01' W 061°46'0 0.0
2018-Feb-19 00:28N 17°01' W 061°46'0 0.0
2018-Feb-18 23:58N 17°01' W 061°46'0 0.0
2018-Feb-18 23:28N 17°01' W 061°46'0 0.0
2018-Feb-18 22:58N 17°01' W 061°46'0 0.0
2018-Feb-18 22:28N 17°01' W 061°46'0 0.0
2018-Feb-18 21:58N 17°01' W 061°46'0 0.0
2018-Feb-18 21:28N 17°01' W 061°46'0 0.0
2018-Feb-18 20:58N 17°01' W 061°46'0 0.0
2018-Feb-18 20:28N 17°01' W 061°46'0 0.0
2018-Feb-18 20:00N 17°01' W 061°46'0 0.0
2018-Feb-18 19:30N 17°01' W 061°46'0 0.0
2018-Feb-18 19:00N 17°01' W 061°46'0 0.2
2018-Feb-18 18:28N 17°01' W 061°46'0 0.0
2018-Feb-18 17:58N 17°01' W 061°46'0 0.0
2018-Feb-18 17:28N 17°01' W 061°46'0 0.6
2018-Feb-18 17:00N 17°01' W 061°47'3 5.6
2018-Feb-18 16:30N 16°60' W 061°49'3 6.6
2018-Feb-18 16:00N 16°57' W 061°50'3 6.9
2018-Feb-18 15:30N 16°53' W 061°51'3 6.1
2018-Feb-18 15:00N 16°50' W 061°52'3 6.7
2018-Feb-18 14:30N 16°47' W 061°51'4 8.0
2018-Feb-18 14:00N 16°43' W 061°51'4 7.9
2018-Feb-18 13:29N 16°39' W 061°51'4 7.1
2018-Feb-18 12:59N 16°35' W 061°50'4 7.4
2018-Feb-18 12:28N 16°32' W 061°49'  
2018-Feb-14 18:06N 14°27' W 060°59'1 5.1
2018-Feb-14 18:00N 14°27' W 060°59'3 5.4
2018-Feb-14 17:29N 14°27' W 060°56'3 5.9
2018-Feb-14 17:00N 14°27' W 060°53'1 2.5
2018-Feb-14 16:28N 14°28' W 060°52'0 0.2
2018-Feb-14 15:59N 14°28' W 060°52'0 0.0
2018-Feb-14 15:29N 14°28' W 060°52'0 0.0
2018-Feb-14 14:59N 14°28' W 060°52'0 0.0
2018-Feb-14 14:29N 14°28' W 060°52'0 0.0
2018-Feb-14 13:59N 14°28' W 060°52'0 0.0
2018-Feb-14 13:26N 14°28' W 060°52'0 0.0
2018-Feb-14 12:53N 14°28' W 060°52'0 0.0
2018-Feb-14 12:14N 14°28' W 060°52'0 0.0
2018-Feb-14 11:56N 14°28' W 060°52'0 0.0
2018-Feb-14 11:29N 14°28' W 060°52'0 0.0
2018-Feb-14 10:59N 14°28' W 060°52'0 0.0
2018-Feb-14 10:29N 14°28' W 060°52'0 0.0
2018-Feb-14 09:59N 14°28' W 060°52'0 0.0
2018-Feb-14 09:29N 14°28' W 060°52'0 0.0
2018-Feb-14 08:59N 14°28' W 060°52'0 0.0
2018-Feb-14 08:29N 14°28' W 060°52'0 0.0
2018-Feb-14 07:59N 14°28' W 060°52'0 0.0
2018-Feb-14 07:29N 14°28' W 060°52'0 0.0
2018-Feb-14 06:14N 14°28' W 060°52'0 0.0
2018-Feb-14 05:59N 14°28' W 060°52'0 0.0
2018-Feb-14 05:29N 14°28' W 060°52'0 0.0
2018-Feb-14 04:59N 14°28' W 060°52'0 0.0
2018-Feb-14 04:29N 14°28' W 060°52'0 0.0
2018-Feb-14 03:59N 14°28' W 060°52'0 0.0
2018-Feb-14 03:29N 14°28' W 060°52'0 0.0
2018-Feb-14 02:59N 14°28' W 060°52'0 0.0
2018-Feb-14 02:29N 14°28' W 060°52'0 0.0
2018-Feb-14 01:56N 14°28' W 060°52'0 0.0
2018-Feb-14 01:29N 14°28' W 060°52'0 0.0
2018-Feb-14 00:59N 14°28' W 060°52'0 0.0
2018-Feb-14 00:23N 14°28' W 060°52'0 0.0
2018-Feb-13 23:59N 14°28' W 060°52'0 0.0
2018-Feb-13 23:26N 14°28' W 060°52'0 0.0
2018-Feb-13 22:59N 14°28' W 060°52'0 0.0
2018-Feb-13 22:29N 14°28' W 060°52'0 0.0
2018-Feb-13 21:59N 14°28' W 060°52'0 0.0
2018-Feb-13 21:29N 14°28' W 060°52'0 0.0
2018-Feb-13 20:59N 14°28' W 060°52'0 0.0
2018-Feb-13 20:29N 14°28' W 060°52'0 0.0
2018-Feb-13 19:59N 14°28' W 060°52'0 0.0
2018-Feb-13 19:26N 14°28' W 060°52'0 0.0
2018-Feb-13 18:59N 14°28' W 060°52'0 0.0
2018-Feb-13 18:26N 14°28' W 060°52'0 0.0
2018-Feb-13 17:59N 14°28' W 060°52'0 0.0
2018-Feb-13 17:29N 14°28' W 060°52'0 0.0
2018-Feb-13 16:59N 14°28' W 060°52'0 0.0
2018-Feb-13 16:29N 14°28' W 060°52'0 0.0
2018-Feb-13 15:59N 14°28' W 060°52'0 0.0
2018-Feb-13 15:29N 14°28' W 060°52'0 0.0
2018-Feb-13 14:59N 14°28' W 060°52'  

Dump ship's entire track history